sensor_id;sensor_type;location;lat;lon;timestamp;pressure;altitude;pressure_sealevel;temperature;humidity
5238;BME280;2639;49.700;7.962;2023-12-20T07:51:45;98981.94;;;1.86;100.00
5238;BME280;2639;49.700;7.962;2023-12-20T07:52:48;98983.72;;;1.87;100.00
5238;BME280;2639;49.700;7.962;2023-12-20T07:53:52;98989.16;;;1.91;100.00
5238;BME280;2639;49.700;7.962;2023-12-20T07:54:55;98979.91;;;1.91;100.00
5238;BME280;2639;49.700;7.962;2023-12-20T07:55:57;98985.69;;;1.90;100.00
5238;BME280;2639;49.700;7.962;2023-12-20T07:57:05;98985.13;;;1.93;100.00
5238;BME280;2639;49.700;7.962;2023-12-20T07:58:06;98986.41;;;1.96;100.00
5238;BME280;2639;49.700;7.962;2023-12-20T07:59:08;98981.16;;;1.95;100.00
5238;BME280;2639;49.700;7.962;2023-12-20T08:00:26;98979.69;;;1.97;100.00
5238;BME280;2639;49.700;7.962;2023-12-20T08:01:27;98981.16;;;1.95;100.00
5238;BME280;2639;49.700;7.962;2023-12-20T08:02:30;98986.56;;;1.98;100.00
5238;BME280;2639;49.700;7.962;2023-12-20T08:03:32;98997.03;;;2.01;100.00
5238;BME280;2639;49.700;7.962;2023-12-20T08:04:35;98989.63;;;2.02;100.00
5238;BME280;2639;49.700;7.962;2023-12-20T08:05:37;98991.41;;;2.03;100.00
5238;BME280;2639;49.700;7.962;2023-12-20T08:06:41;98992.47;;;2.05;100.00
5238;BME280;2639;49.700;7.962;2023-12-20T08:07:48;98994.13;;;2.05;100.00
5238;BME280;2639;49.700;7.962;2023-12-20T08:08:50;98985.06;;;2.07;100.00
5238;BME280;2639;49.700;7.962;2023-12-20T08:10:03;98991.75;;;2.06;100.00
5238;BME280;2639;49.700;7.962;2023-12-20T08:11:06;98996.28;;;2.09;100.00
5238;BME280;2639;49.700;7.962;2023-12-20T08:12:08;98986.16;;;2.09;100.00
5238;BME280;2639;49.700;7.962;2023-12-20T08:13:11;99004.59;;;2.08;100.00
5238;BME280;2639;49.700;7.962;2023-12-20T08:14:13;99002.78;;;2.07;100.00
5238;BME280;2639;49.700;7.962;2023-12-20T08:15:16;98996.59;;;2.12;100.00
5238;BME280;2639;49.700;7.962;2023-12-20T08:16:19;99001.28;;;2.16;100.00
5238;BME280;2639;49.700;7.962;2023-12-20T08:17:20;98997.81;;;2.16;100.00
5238;BME280;2639;49.700;7.962;2023-12-20T08:18:24;99011.00;;;2.20;100.00
5238;BME280;2639;49.700;7.962;2023-12-20T08:19:26;99001.56;;;2.26;100.00
5238;BME280;2639;49.700;7.962;2023-12-20T08:20:29;99008.78;;;2.30;100.00
5238;BME280;2639;49.700;7.962;2023-12-20T08:21:41;99006.88;;;2.37;100.00
5238;BME280;2639;49.700;7.962;2023-12-20T08:22:44;99005.78;;;2.42;100.00
5238;BME280;2639;49.700;7.962;2023-12-20T08:23:47;99011.00;;;2.43;100.00
5238;BME280;2639;49.700;7.962;2023-12-20T08:24:50;99008.97;;;2.48;100.00
5238;BME280;2639;49.700;7.962;2023-12-20T08:25:52;99008.66;;;2.45;100.00
5238;BME280;2639;49.700;7.962;2023-12-20T08:26:55;99012.25;;;2.47;100.00
5238;BME280;2639;49.700;7.962;2023-12-20T08:27:57;99012.94;;;2.53;100.00
5238;BME280;2639;49.700;7.962;2023-12-20T08:28:59;99002.88;;;2.62;100.00
5238;BME280;2639;49.700;7.962;2023-12-20T08:30:03;99007.75;;;2.67;100.00
5238;BME280;2639;49.700;7.962;2023-12-20T08:31:05;99011.28;;;2.77;100.00
5238;BME280;2639;49.700;7.962;2023-12-20T08:32:08;99010.63;;;2.86;100.00
5238;BME280;2639;49.700;7.962;2023-12-20T08:33:10;98999.34;;;2.91;100.00
5238;BME280;2639;49.700;7.962;2023-12-20T08:34:14;98998.06;;;2.95;100.00
5238;BME280;2639;49.700;7.962;2023-12-20T08:35:17;98997.31;;;2.96;100.00
5238;BME280;2639;49.700;7.962;2023-12-20T08:36:21;98999.44;;;3.00;100.00
5238;BME280;2639;49.700;7.962;2023-12-20T08:37:24;98999.53;;;3.09;100.00
5238;BME280;2639;49.700;7.962;2023-12-20T08:38:26;99001.06;;;3.15;100.00
5238;BME280;2639;49.700;7.962;2023-12-20T08:39:29;98996.97;;;3.25;100.00
5238;BME280;2639;49.700;7.962;2023-12-20T08:40:35;98997.72;;;3.40;100.00
5238;BME280;2639;49.700;7.962;2023-12-20T08:41:37;98999.03;;;3.52;100.00
5238;BME280;2639;49.700;7.962;2023-12-20T08:42:39;99005.97;;;3.62;100.00
5238;BME280;2639;49.700;7.962;2023-12-20T08:43:41;98992.88;;;3.66;100.00
5238;BME280;2639;49.700;7.962;2023-12-20T08:44:44;98997.13;;;3.74;100.00
5238;BME280;2639;49.700;7.962;2023-12-20T08:45:46;98990.88;;;3.79;100.00
5238;BME280;2639;49.700;7.962;2023-12-20T08:46:47;98996.91;;;3.88;100.00
5238;BME280;2639;49.700;7.962;2023-12-20T08:47:50;98989.59;;;3.91;100.00
5238;BME280;2639;49.700;7.962;2023-12-20T08:48:53;98997.53;;;3.94;100.00
5238;BME280;2639;49.700;7.962;2023-12-20T08:49:55;98997.13;;;3.98;100.00
5238;BME280;2639;49.700;7.962;2023-12-20T08:51:01;98988.31;;;4.04;100.00
5238;BME280;2639;49.700;7.962;2023-12-20T08:52:03;98995.88;;;4.11;100.00
5238;BME280;2639;49.700;7.962;2023-12-20T08:53:06;98995.44;;;4.15;100.00
5238;BME280;2639;49.700;7.962;2023-12-20T08:54:07;98999.19;;;4.18;100.00
5238;BME280;2639;49.700;7.962;2023-12-20T08:55:11;98994.72;;;4.25;100.00
5238;BME280;2639;49.700;7.962;2023-12-20T08:56:14;98996.25;;;4.31;100.00
5238;BME280;2639;49.700;7.962;2023-12-20T08:57:18;98987.91;;;4.32;100.00
5238;BME280;2639;49.700;7.962;2023-12-20T08:58:20;98983.13;;;4.35;100.00
5238;BME280;2639;49.700;7.962;2023-12-20T08:59:21;98986.13;;;4.40;100.00
5238;BME280;2639;49.700;7.962;2023-12-20T09:00:24;98989.44;;;4.48;100.00
5238;BME280;2639;49.700;7.962;2023-12-20T09:01:29;98987.38;;;4.52;100.00
5238;BME280;2639;49.700;7.962;2023-12-20T09:02:31;98986.78;;;4.55;100.00
5238;BME280;2639;49.700;7.962;2023-12-20T09:03:33;98993.69;;;4.56;100.00
5238;BME280;2639;49.700;7.962;2023-12-20T09:04:35;98988.59;;;4.56;100.00
5238;BME280;2639;49.700;7.962;2023-12-20T09:05:37;98990.72;;;4.60;100.00
5238;BME280;2639;49.700;7.962;2023-12-20T09:06:40;98997.47;;;4.68;100.00
5238;BME280;2639;49.700;7.962;2023-12-20T09:07:41;98988.06;;;4.67;100.00
5238;BME280;2639;49.700;7.962;2023-12-20T09:08:45;98991.97;;;4.72;100.00
5238;BME280;2639;49.700;7.962;2023-12-20T09:09:47;98991.22;;;4.82;100.00
5238;BME280;2639;49.700;7.962;2023-12-20T09:10:50;98989.31;;;4.88;100.00
5238;BME280;2639;49.700;7.962;2023-12-20T09:11:53;98987.97;;;4.92;100.00
5238;BME280;2639;49.700;7.962;2023-12-20T09:12:54;98991.25;;;4.91;100.00
5238;BME280;2639;49.700;7.962;2023-12-20T09:13:58;99007.72;;;4.94;100.00
5238;BME280;2639;49.700;7.962;2023-12-20T09:15:00;98994.69;;;4.91;100.00
5238;BME280;2639;49.700;7.962;2023-12-20T09:16:04;99000.38;;;4.89;100.00
5238;BME280;2639;49.700;7.962;2023-12-20T09:17:06;98993.81;;;4.91;100.00
5238;BME280;2639;49.700;7.962;2023-12-20T09:18:10;99000.09;;;4.94;100.00
5238;BME280;2639;49.700;7.962;2023-12-20T09:19:13;99001.00;;;4.95;100.00
5238;BME280;2639;49.700;7.962;2023-12-20T09:20:14;99012.97;;;4.96;100.00
5238;BME280;2639;49.700;7.962;2023-12-20T09:21:17;99001.00;;;4.95;100.00
5238;BME280;2639;49.700;7.962;2023-12-20T09:22:19;99011.94;;;5.02;100.00
5238;BME280;2639;49.700;7.962;2023-12-20T09:23:22;99010.28;;;5.03;100.00
5238;BME280;2639;49.700;7.962;2023-12-20T09:24:24;99010.47;;;5.04;100.00
5238;BME280;2639;49.700;7.962;2023-12-20T09:25:27;99005.53;;;5.06;100.00
5238;BME280;2639;49.700;7.962;2023-12-20T09:26:31;99008.22;;;5.07;100.00
5238;BME280;2639;49.700;7.962;2023-12-20T09:27:33;99008.66;;;5.12;100.00
5238;BME280;2639;49.700;7.962;2023-12-20T09:28:35;99007.94;;;5.13;100.00
5238;BME280;2639;49.700;7.962;2023-12-20T09:29:39;99007.94;;;5.13;100.00
5238;BME280;2639;49.700;7.962;2023-12-20T09:30:41;99010.50;;;5.13;100.00
5238;BME280;2639;49.700;7.962;2023-12-20T09:31:46;99004.94;;;5.17;100.00
5238;BME280;2639;49.700;7.962;2023-12-20T09:32:48;99002.56;;;5.19;100.00
5238;BME280;2639;49.700;7.962;2023-12-20T09:33:51;99008.69;;;5.21;100.00
5238;BME280;2639;49.700;7.962;2023-12-20T09:34:53;99000.47;;;5.23;100.00
5238;BME280;2639;49.700;7.962;2023-12-20T09:35:56;99000.16;;;5.20;100.00
5238;BME280;2639;49.700;7.962;2023-12-20T09:36:58;99010.94;;;5.18;100.00
5238;BME280;2639;49.700;7.962;2023-12-20T09:38:01;99002.56;;;5.19;100.00
5238;BME280;2639;49.700;7.962;2023-12-20T09:39:02;99002.84;;;5.22;100.00
5238;BME280;2639;49.700;7.962;2023-12-20T09:40:06;98990.88;;;5.21;100.00
5238;BME280;2639;49.700;7.962;2023-12-20T09:41:10;98988.50;;;5.22;100.00
5238;BME280;2639;49.700;7.962;2023-12-20T09:42:18;99004.94;;;5.26;100.00
5238;BME280;2639;49.700;7.962;2023-12-20T09:43:24;98998.66;;;5.31;100.00
5238;BME280;2639;49.700;7.962;2023-12-20T09:44:28;98995.41;;;5.41;100.00
5238;BME280;2639;49.700;7.962;2023-12-20T09:45:31;98996.44;;;5.43;100.00
5238;BME280;2639;49.700;7.962;2023-12-20T09:46:34;98996.91;;;5.39;100.00
5238;BME280;2639;49.700;7.962;2023-12-20T09:47:41;98994.19;;;5.37;100.00
5238;BME280;2639;49.700;7.962;2023-12-20T09:48:44;98986.38;;;5.36;100.00
5238;BME280;2639;49.700;7.962;2023-12-20T09:49:47;98985.22;;;5.41;100.00
5238;BME280;2639;49.700;7.962;2023-12-20T09:50:49;98990.91;;;5.47;100.00
5238;BME280;2639;49.700;7.962;2023-12-20T09:51:54;98990.63;;;5.53;100.00
5238;BME280;2639;49.700;7.962;2023-12-20T09:52:57;98992.84;;;5.58;100.00
5238;BME280;2639;49.700;7.962;2023-12-20T09:54:02;98981.94;;;5.59;100.00
5238;BME280;2639;49.700;7.962;2023-12-20T09:55:04;98985.66;;;5.54;100.00
5238;BME280;2639;49.700;7.962;2023-12-20T09:56:08;98995.22;;;5.57;100.00
5238;BME280;2639;49.700;7.962;2023-12-20T09:57:10;98987.31;;;5.62;100.00
5238;BME280;2639;49.700;7.962;2023-12-20T09:58:14;98989.41;;;5.66;100.00
5238;BME280;2639;49.700;7.962;2023-12-20T09:59:16;98991.19;;;5.67;100.00
5238;BME280;2639;49.700;7.962;2023-12-20T10:00:18;98993.13;;;5.70;100.00
5238;BME280;2639;49.700;7.962;2023-12-20T10:01:21;98988.22;;;5.72;100.00
5238;BME280;2639;49.700;7.962;2023-12-20T10:02:25;98993.88;;;5.78;100.00
5238;BME280;2639;49.700;7.962;2023-12-20T10:03:29;98994.47;;;5.84;100.00
5238;BME280;2639;49.700;7.962;2023-12-20T10:04:34;98983.41;;;5.92;100.00
5238;BME280;2639;49.700;7.962;2023-12-20T10:05:39;98989.56;;;5.94;100.00
5238;BME280;2639;49.700;7.962;2023-12-20T10:06:44;98983.41;;;5.92;100.00
5238;BME280;2639;49.700;7.962;2023-12-20T10:07:47;98985.94;;;5.92;100.00
5238;BME280;2639;49.700;7.962;2023-12-20T10:08:49;98986.06;;;5.94;100.00
5238;BME280;2639;49.700;7.962;2023-12-20T10:09:54;98985.50;;;5.96;100.00
5238;BME280;2639;49.700;7.962;2023-12-20T10:10:56;98996.13;;;5.92;100.00
5238;BME280;2639;49.700;7.962;2023-12-20T10:12:05;98981.28;;;5.88;100.00
5238;BME280;2639;49.700;7.962;2023-12-20T10:13:09;98982.34;;;5.90;100.00
5238;BME280;2639;49.700;7.962;2023-12-20T10:14:13;98983.41;;;5.92;100.00
5238;BME280;2639;49.700;7.962;2023-12-20T10:15:15;98989.09;;;5.98;100.00
5238;BME280;2639;49.700;7.962;2023-12-20T10:16:18;98985.03;;;6.00;100.00
5238;BME280;2639;49.700;7.962;2023-12-20T10:17:27;98987.91;;;5.95;100.00
5238;BME280;2639;49.700;7.962;2023-12-20T10:18:30;98978.31;;;5.92;100.00
5238;BME280;2639;49.700;7.962;2023-12-20T10:19:40;98984.00;;;5.98;100.00
5238;BME280;2639;49.700;7.962;2023-12-20T10:20:42;98982.03;;;6.04;100.00
5238;BME280;2639;49.700;7.962;2023-12-20T10:21:45;98980.53;;;6.06;100.00
5238;BME280;2639;49.700;7.962;2023-12-20T10:22:47;98983.09;;;6.06;100.00
5238;BME280;2639;49.700;7.962;2023-12-20T10:23:50;98980.09;;;6.10;100.00
5238;BME280;2639;49.700;7.962;2023-12-20T10:24:52;98976.50;;;6.08;100.00
5238;BME280;2639;49.700;7.962;2023-12-20T10:25:56;98971.41;;;6.08;100.00
5238;BME280;2639;49.700;7.962;2023-12-20T10:27:02;98978.88;;;6.16;100.00
5238;BME280;2639;49.700;7.962;2023-12-20T10:28:10;98972.75;;;6.05;100.00
5238;BME280;2639;49.700;7.962;2023-12-20T10:29:14;98975.00;;;6.10;100.00
5238;BME280;2639;49.700;7.962;2023-12-20T10:30:16;98971.97;;;6.15;100.00
5238;BME280;2639;49.700;7.962;2023-12-20T10:31:26;98971.97;;;6.15;100.00
5238;BME280;2639;49.700;7.962;2023-12-20T10:32:29;98971.97;;;6.15;100.00
5238;BME280;2639;49.700;7.962;2023-12-20T10:33:31;98965.38;;;6.17;100.00
5238;BME280;2639;49.700;7.962;2023-12-20T10:34:35;98963.59;;;6.16;100.00
5238;BME280;2639;49.700;7.962;2023-12-20T10:35:37;98971.97;;;6.15;100.00
5238;BME280;2639;49.700;7.962;2023-12-20T10:36:45;98954.00;;;6.04;100.00
5238;BME280;2639;49.700;7.962;2023-12-20T10:37:47;98958.94;;;6.03;100.00
5238;BME280;2639;49.700;7.962;2023-12-20T10:38:50;98961.22;;;6.08;100.00
5238;BME280;2639;49.700;7.962;2023-12-20T10:39:55;98952.94;;;6.11;100.00
5238;BME280;2639;49.700;7.962;2023-12-20T10:40:58;98953.38;;;6.16;100.00
5238;BME280;2639;49.700;7.962;2023-12-20T10:42:01;98954.56;;;6.19;100.00
5238;BME280;2639;49.700;7.962;2023-12-20T10:43:08;98949.28;;;6.26;100.00
5238;BME280;2639;49.700;7.962;2023-12-20T10:44:13;98946.72;;;6.35;100.00
5238;BME280;2639;49.700;7.962;2023-12-20T10:45:15;98949.44;;;6.28;99.03
5238;BME280;2639;49.700;7.962;2023-12-20T10:46:19;98944.94;;;6.34;99.68
5238;BME280;2639;49.700;7.962;2023-12-20T10:47:22;98944.59;;;6.40;99.26
5238;BME280;2639;49.700;7.962;2023-12-20T10:48:28;98942.19;;;6.41;99.21
5238;BME280;2639;49.700;7.962;2023-12-20T10:49:36;98932.00;;;6.41;98.67
5238;BME280;2639;49.700;7.962;2023-12-20T10:50:40;98932.00;;;6.41;98.01
5238;BME280;2639;49.700;7.962;2023-12-20T10:51:44;98935.88;;;6.46;98.14
5238;BME280;2639;49.700;7.962;2023-12-20T10:52:49;98931.81;;;6.48;96.87
5238;BME280;2639;49.700;7.962;2023-12-20T10:53:57;98942.44;;;6.53;97.56
5238;BME280;2639;49.700;7.962;2023-12-20T10:54:59;98930.41;;;6.52;96.85
5238;BME280;2639;49.700;7.962;2023-12-20T10:56:02;98928.63;;;6.51;96.28
5238;BME280;2639;49.700;7.962;2023-12-20T10:57:05;98937.34;;;6.53;97.44
5238;BME280;2639;49.700;7.962;2023-12-20T10:58:09;98930.72;;;6.55;97.31
5238;BME280;2639;49.700;7.962;2023-12-20T10:59:15;98934.94;;;6.55;97.31
5238;BME280;2639;49.700;7.962;2023-12-20T11:00:21;98936.72;;;6.56;97.90
5238;BME280;2639;49.700;7.962;2023-12-20T11:01:23;98927.56;;;6.58;97.65
5238;BME280;2639;49.700;7.962;2023-12-20T11:02:26;98927.72;;;6.59;95.79
5238;BME280;2639;49.700;7.962;2023-12-20T11:03:32;98925.28;;;6.61;95.07
5238;BME280;2639;49.700;7.962;2023-12-20T11:04:43;98929.50;;;6.60;96.15
5238;BME280;2639;49.700;7.962;2023-12-20T11:05:50;98927.38;;;6.65;96.64
5238;BME280;2639;49.700;7.962;2023-12-20T11:06:59;98933.16;;;6.72;97.33
5238;BME280;2639;49.700;7.962;2023-12-20T11:08:09;98920.22;;;6.80;97.51
5238;BME280;2639;49.700;7.962;2023-12-20T11:09:16;98925.81;;;6.76;95.51
5238;BME280;2639;49.700;7.962;2023-12-20T11:10:23;98920.84;;;6.77;94.75
5238;BME280;2639;49.700;7.962;2023-12-20T11:11:32;98928.50;;;6.77;94.05
5238;BME280;2639;49.700;7.962;2023-12-20T11:12:41;98926.25;;;6.80;95.23
5238;BME280;2639;49.700;7.962;2023-12-20T11:13:54;98925.75;;;6.84;95.10
5238;BME280;2639;49.700;7.962;2023-12-20T11:15:01;98914.34;;;6.89;94.42
5238;BME280;2639;49.700;7.962;2023-12-20T11:16:06;98914.66;;;6.84;93.07
5238;BME280;2639;49.700;7.962;2023-12-20T11:17:10;98922.47;;;6.85;93.48
5238;BME280;2639;49.700;7.962;2023-12-20T11:18:15;98919.44;;;6.89;93.89
5238;BME280;2639;49.700;7.962;2023-12-20T11:19:17;98920.88;;;6.96;93.28
5238;BME280;2639;49.700;7.962;2023-12-20T11:20:22;98917.41;;;6.95;93.22
5238;BME280;2639;49.700;7.962;2023-12-20T11:21:24;98915.75;;;6.96;93.16
5238;BME280;2639;49.700;7.962;2023-12-20T11:22:30;98906.47;;;6.97;93.07
5238;BME280;2639;49.700;7.962;2023-12-20T11:23:32;98916.19;;;7.01;93.17
5238;BME280;2639;49.700;7.962;2023-12-20T11:24:44;98913.16;;;7.05;93.24
5238;BME280;2639;49.700;7.962;2023-12-20T11:25:47;98917.63;;;7.07;93.30
5238;BME280;2639;49.700;7.962;2023-12-20T11:26:55;98918.06;;;7.12;93.95
5238;BME280;2639;49.700;7.962;2023-12-20T11:28:07;98918.69;;;7.09;91.00
5238;BME280;2639;49.700;7.962;2023-12-20T11:29:29;98916.00;;;7.08;90.73
5238;BME280;2639;49.700;7.962;2023-12-20T11:30:42;98923.56;;;6.98;89.90
5238;BME280;2639;49.700;7.962;2023-12-20T11:31:45;98918.81;;;6.92;91.59
5238;BME280;2639;49.700;7.962;2023-12-20T11:32:47;98913.28;;;6.87;91.09
5238;BME280;2639;49.700;7.962;2023-12-20T11:33:50;98913.00;;;6.84;91.25
5238;BME280;2639;49.700;7.962;2023-12-20T11:34:55;98920.66;;;6.84;92.03
5238;BME280;2639;49.700;7.962;2023-12-20T11:35:58;98920.38;;;6.81;92.23
5238;BME280;2639;49.700;7.962;2023-12-20T11:37:02;98919.31;;;6.79;92.66
5238;BME280;2639;49.700;7.962;2023-12-20T11:38:07;98924.44;;;6.79;92.20
5238;BME280;2639;49.700;7.962;2023-12-20T11:39:09;98930.84;;;6.84;93.10
5238;BME280;2639;49.700;7.962;2023-12-20T11:40:15;98931.00;;;6.86;92.93
5238;BME280;2639;49.700;7.962;2023-12-20T11:41:18;98929.06;;;6.83;91.53
5238;BME280;2639;49.700;7.962;2023-12-20T11:42:20;98929.81;;;6.82;92.13
5238;BME280;2639;49.700;7.962;2023-12-20T11:43:30;98933.91;;;6.80;92.10
5238;BME280;2639;49.700;7.962;2023-12-20T11:44:33;98931.81;;;6.76;91.64
5238;BME280;2639;49.700;7.962;2023-12-20T11:45:35;98922.78;;;6.80;92.46
5238;BME280;2639;49.700;7.962;2023-12-20T11:46:39;98912.75;;;6.72;91.61
5238;BME280;2639;49.700;7.962;2023-12-20T11:47:42;98917.44;;;6.68;91.37
5238;BME280;2639;49.700;7.962;2023-12-20T11:48:46;98925.25;;;6.69;92.32
5238;BME280;2639;49.700;7.962;2023-12-20T11:49:49;98925.66;;;6.74;93.14
5238;BME280;2639;49.700;7.962;2023-12-20T11:50:52;98922.97;;;6.72;93.58
5238;BME280;2639;49.700;7.962;2023-12-20T11:51:54;98924.63;;;6.72;92.97
5238;BME280;2639;49.700;7.962;2023-12-20T11:52:57;98922.84;;;6.71;92.92
5238;BME280;2639;49.700;7.962;2023-12-20T11:53:59;98924.63;;;6.72;93.17
5238;BME280;2639;49.700;7.962;2023-12-20T11:55:02;98924.16;;;6.76;92.84
5238;BME280;2639;49.700;7.962;2023-12-20T11:56:05;98923.69;;;6.80;93.54
5238;BME280;2639;49.700;7.962;2023-12-20T11:57:09;98930.00;;;6.75;92.53
5238;BME280;2639;49.700;7.962;2023-12-20T11:58:11;98923.13;;;6.74;93.43
5238;BME280;2639;49.700;7.962;2023-12-20T11:59:15;98925.88;;;6.67;92.33
5238;BME280;2639;49.700;7.962;2023-12-20T12:00:24;98917.75;;;6.71;92.71
5238;BME280;2639;49.700;7.962;2023-12-20T12:01:27;98921.66;;;6.67;93.02
5238;BME280;2639;49.700;7.962;2023-12-20T12:02:31;98924.97;;;6.66;91.77
5238;BME280;2639;49.700;7.962;2023-12-20T12:03:32;98920.50;;;6.64;91.26
5238;BME280;2639;49.700;7.962;2023-12-20T12:04:35;98928.88;;;6.63;91.11
5238;BME280;2639;49.700;7.962;2023-12-20T12:05:38;98928.31;;;6.57;90.94
5238;BME280;2639;49.700;7.962;2023-12-20T12:06:40;98919.91;;;6.58;92.22
5238;BME280;2639;49.700;7.962;2023-12-20T12:07:45;98919.91;;;6.58;91.80
5238;BME280;2639;49.700;7.962;2023-12-20T12:08:48;98925.28;;;6.61;92.47
5238;BME280;2639;49.700;7.962;2023-12-20T12:09:50;98924.25;;;6.59;92.14
5238;BME280;2639;49.700;7.962;2023-12-20T12:10:53;98926.19;;;6.61;92.55
5238;BME280;2639;49.700;7.962;2023-12-20T12:11:55;98925.00;;;6.58;91.55
5238;BME280;2639;49.700;7.962;2023-12-20T12:12:58;98919.28;;;6.60;91.45
5238;BME280;2639;49.700;7.962;2023-12-20T12:14:00;98919.91;;;6.58;91.19
5238;BME280;2639;49.700;7.962;2023-12-20T12:15:04;98923.50;;;6.60;91.99
5238;BME280;2639;49.700;7.962;2023-12-20T12:16:06;98916.59;;;6.59;91.48
5238;BME280;2639;49.700;7.962;2023-12-20T12:17:10;98910.75;;;6.60;92.38
5238;BME280;2639;49.700;7.962;2023-12-20T12:18:17;98914.47;;;6.63;91.76
5238;BME280;2639;49.700;7.962;2023-12-20T12:19:20;98914.00;;;6.67;90.55
5238;BME280;2639;49.700;7.962;2023-12-20T12:20:22;98920.75;;;6.67;90.91
5238;BME280;2639;49.700;7.962;2023-12-20T12:21:26;98921.03;;;6.70;90.82
5238;BME280;2639;49.700;7.962;2023-12-20T12:22:34;98918.63;;;6.71;90.78
5238;BME280;2639;49.700;7.962;2023-12-20T12:23:38;98924.63;;;6.72;90.91
5238;BME280;2639;49.700;7.962;2023-12-20T12:24:39;98918.59;;;6.80;91.58
5238;BME280;2639;49.700;7.962;2023-12-20T12:25:41;98917.03;;;6.82;92.10
5238;BME280;2639;49.700;7.962;2023-12-20T12:26:50;98921.25;;;6.82;91.91
5238;BME280;2639;49.700;7.962;2023-12-20T12:27:51;98909.59;;;6.75;91.23
5238;BME280;2639;49.700;7.962;2023-12-20T12:28:54;98911.66;;;6.79;91.63
5238;BME280;2639;49.700;7.962;2023-12-20T12:30:00;98916.16;;;6.82;91.17
5238;BME280;2639;49.700;7.962;2023-12-20T12:31:03;98919.31;;;6.79;90.21
5238;BME280;2639;49.700;7.962;2023-12-20T12:32:05;98902.97;;;6.77;89.84
5238;BME280;2639;49.700;7.962;2023-12-20T12:33:09;98905.06;;;6.81;89.93
5238;BME280;2639;49.700;7.962;2023-12-20T12:34:12;98906.09;;;6.83;91.68
5238;BME280;2639;49.700;7.962;2023-12-20T12:35:15;98905.22;;;6.83;91.26
5238;BME280;2639;49.700;7.962;2023-12-20T12:36:17;98892.31;;;6.81;91.19
5238;BME280;2639;49.700;7.962;2023-12-20T12:37:20;98909.91;;;6.78;91.23
5238;BME280;2639;49.700;7.962;2023-12-20T12:38:22;98892.84;;;6.68;90.53
5238;BME280;2639;49.700;7.962;2023-12-20T12:39:25;98898.53;;;6.66;90.58
5238;BME280;2639;49.700;7.962;2023-12-20T12:40:27;98903.06;;;6.68;91.47
5238;BME280;2639;49.700;7.962;2023-12-20T12:41:29;98899.03;;;6.62;90.97
5238;BME280;2639;49.700;7.962;2023-12-20T12:42:31;98899.78;;;6.61;91.12
5238;BME280;2639;49.700;7.962;2023-12-20T12:43:34;98899.50;;;6.58;91.25
5238;BME280;2639;49.700;7.962;2023-12-20T12:44:37;98887.78;;;6.60;92.25
5238;BME280;2639;49.700;7.962;2023-12-20T12:45:40;98888.06;;;6.63;91.96
5238;BME280;2639;49.700;7.962;2023-12-20T12:46:41;98886.56;;;6.65;92.52
5238;BME280;2639;49.700;7.962;2023-12-20T12:47:45;98888.47;;;6.67;92.67
5238;BME280;2639;49.700;7.962;2023-12-20T12:48:47;98884.78;;;6.64;91.40
5238;BME280;2639;49.700;7.962;2023-12-20T12:49:53;98884.47;;;6.61;91.08
5238;BME280;2639;49.700;7.962;2023-12-20T12:50:55;98887.91;;;6.61;91.65
5238;BME280;2639;49.700;7.962;2023-12-20T12:52:00;98885.97;;;6.59;90.16
5238;BME280;2639;49.700;7.962;2023-12-20T12:53:02;98892.75;;;6.58;90.14
5238;BME280;2639;49.700;7.962;2023-12-20T12:54:05;98891.84;;;6.58;91.35
5238;BME280;2639;49.700;7.962;2023-12-20T12:55:07;98888.84;;;6.62;91.88
5238;BME280;2639;49.700;7.962;2023-12-20T12:56:12;98889.03;;;6.55;91.24
5238;BME280;2639;49.700;7.962;2023-12-20T12:57:14;98894.13;;;6.55;91.89
5238;BME280;2639;49.700;7.962;2023-12-20T12:58:17;98886.31;;;6.53;91.84
5238;BME280;2639;49.700;7.962;2023-12-20T12:59:19;98887.84;;;6.51;91.54
5238;BME280;2639;49.700;7.962;2023-12-20T13:00:22;98885.56;;;6.54;91.51
5238;BME280;2639;49.700;7.962;2023-12-20T13:01:24;98878.50;;;6.51;91.68
5238;BME280;2639;49.700;7.962;2023-12-20T13:02:27;98881.84;;;6.50;89.99
5238;BME280;2639;49.700;7.962;2023-12-20T13:03:28;98870.13;;;6.52;91.40
5238;BME280;2639;49.700;7.962;2023-12-20T13:04:32;98859.31;;;6.55;91.40
5238;BME280;2639;49.700;7.962;2023-12-20T13:05:35;98865.88;;;6.62;91.71
5238;BME280;2639;49.700;7.962;2023-12-20T13:06:42;98851.03;;;6.58;90.33
5238;BME280;2639;49.700;7.962;2023-12-20T13:07:44;98853.31;;;6.55;91.02
5238;BME280;2639;49.700;7.962;2023-12-20T13:08:48;98847.28;;;6.54;90.64
5238;BME280;2639;49.700;7.962;2023-12-20T13:09:50;98853.00;;;6.51;90.96
5238;BME280;2639;49.700;7.962;2023-12-20T13:10:53;98841.50;;;6.46;91.22
5238;BME280;2639;49.700;7.962;2023-12-20T13:11:54;98832.06;;;6.45;91.25
5238;BME280;2639;49.700;7.962;2023-12-20T13:12:57;98833.56;;;6.43;91.63
5238;BME280;2639;49.700;7.962;2023-12-20T13:13:59;98836.13;;;6.43;91.45
5238;BME280;2639;49.700;7.962;2023-12-20T13:15:02;98822.81;;;6.37;91.88
5238;BME280;2639;49.700;7.962;2023-12-20T13:16:05;98830.63;;;6.30;92.51
5238;BME280;2639;49.700;7.962;2023-12-20T13:17:08;98832.91;;;6.27;92.05
5238;BME280;2639;49.700;7.962;2023-12-20T13:18:10;98830.63;;;6.30;92.13
5238;BME280;2639;49.700;7.962;2023-12-20T13:19:12;98830.63;;;6.30;91.64
5238;BME280;2639;49.700;7.962;2023-12-20T13:20:15;98833.03;;;6.28;92.59
5238;BME280;2639;49.700;7.962;2023-12-20T13:21:19;98847.19;;;6.25;92.76
5238;BME280;2639;49.700;7.962;2023-12-20T13:22:20;98841.78;;;6.22;92.39
5238;BME280;2639;49.700;7.962;2023-12-20T13:23:23;98834.63;;;6.18;91.74
5238;BME280;2639;49.700;7.962;2023-12-20T13:24:25;98824.41;;;6.18;92.34
5238;BME280;2639;49.700;7.962;2023-12-20T13:25:28;98827.09;;;6.19;92.70
5238;BME280;2639;49.700;7.962;2023-12-20T13:26:29;98826.97;;;6.18;92.71
5238;BME280;2639;49.700;7.962;2023-12-20T13:27:32;98819.31;;;6.18;92.64
5238;BME280;2639;49.700;7.962;2023-12-20T13:28:34;98814.22;;;6.18;92.34
5238;BME280;2639;49.700;7.962;2023-12-20T13:29:37;98809.84;;;6.17;91.51
5238;BME280;2639;49.700;7.962;2023-12-20T13:30:41;98812.84;;;6.21;91.32
5238;BME280;2639;49.700;7.962;2023-12-20T13:31:44;98806.66;;;6.28;91.76
5238;BME280;2639;49.700;7.962;2023-12-20T13:32:46;98801.97;;;6.32;91.92
5238;BME280;2639;49.700;7.962;2023-12-20T13:33:49;98807.22;;;6.34;91.15
5238;BME280;2639;49.700;7.962;2023-12-20T13:34:51;98805.28;;;6.31;91.47
5238;BME280;2639;49.700;7.962;2023-12-20T13:35:54;98806.03;;;6.30;91.43
5238;BME280;2639;49.700;7.962;2023-12-20T13:36:59;98816.84;;;6.28;91.04
5238;BME280;2639;49.700;7.962;2023-12-20T13:38:01;98811.16;;;6.22;91.71
5238;BME280;2639;49.700;7.962;2023-12-20T13:39:03;98814.50;;;6.21;91.70
5238;BME280;2639;49.700;7.962;2023-12-20T13:40:07;98806.06;;;6.22;91.91